9e Meeting National du Choletais

Compétition Départementale

CHOLET

Du Vendredi 03 Novembre 2017 au Samedi 04 Novembre 2017

Bassin de 25m

100 4 Nages Dames

Finale A

Nom Année Temps Pts Club Pays
1 RAYNERT Maud 1998 1:05:53 1196 ES MASSY NATATION FRA
2 MAILLE Ilona 2001 1:06:09 1180 ES MASSY NATATION FRA
3 DELAUNAY Mai 2001 1:06:29 1174 NANTES NATATION FRA
4 GOURAUD Agathe 2001 1:06:48 1169 NANTES NATATION FRA
5 LE GUEN Ilona 2001 1:08:37 1115 CN BREST FRA
6 DESBONNES Leha 2002 1:08:50 1111 ES MASSY NATATION FRA
7 SAUREL Alexia 1999 1:08:90 1100 NANTES NATATION FRA
8 BOHN Johanne 2002 1:10:78 1049 NANTES NATATION FRA
9 ALMEIDA Léana 2001 1:10:89 1046 ES MASSY NATATION FRA
10 LENGLET Nolwenn 2002 1:11:30 1034 ES MASSY NATATION FRA

Finale B

Nom Année Temps Pts Club Pays
1 SENLIS Juliette 2003 1:11:27 1035 CLUB AQUATIQUE CHOLETAIS FRA
2 LEPRON Agathe 2004 1:11:64 1025 CLUB AQUATIQUE CHOLETAIS FRA
3 CUGMAS Lilou 2003 1:12:14 1012 NANTES NATATION FRA
4 ROUSSEAU Elsa 2003 1:13:62 973 ES MASSY NATATION FRA
5 QUIGNON Carla 2003 1:14:26 956 ANGERS NATATION FRA
6 REMOND Eva 2003 1:15:45 926 NANTES NATATION FRA
7 ORANGE Vanina 2003 1:16:68 894 NANTES NATATION FRA
8 CARBONNELLE Victoire 2004 1:16:75 893 NANTES NATATION FRA
9 LABRUGERE Camille 2003 1:18:80 842 ANGERS NATATION FRA
10 BRUN Tiphaine 2004 1:19:36 829 NANTES NATATION FRA

Séries

Nom Année Temps Pts Club Pays
1 MAILLE Ilona 2001 1:06:20 1177 ES MASSY NATATION FRA
2 RAYNERT Maud 1998 1:08:40 1114 ES MASSY NATATION FRA
3 BOHN Johanne 2002 1:09:02 1097 NANTES NATATION FRA
4 LE GUEN Ilona 2001 1:09:18 1092 CN BREST FRA
5 GOURAUD Agathe 2001 1:09:37 1087 NANTES NATATION FRA
6 DELAUNAY Mai 2001 1:09:44 1085 NANTES NATATION FRA
7 ALMEIDA Léana 2001 1:09:70 1078 ES MASSY NATATION FRA
8 DESBONNES Leha 2002 1:10:09 1067 ES MASSY NATATION FRA
9 SAUREL Alexia 1999 1:10:53 1055 NANTES NATATION FRA
10 LENGLET Nolwenn 2002 1:10:80 1048 ES MASSY NATATION FRA
11 PHAN Tamara 2000 1:11:16 1038 LA ROCHE-SUR-YON NATATION FRA
12 CASTEL Margaux 2000 1:11:17 1038 S.M MONTROUGE FRA
13 BERTRAND Léa 2000 1:11:74 1023 ANGERS NATATION FRA
14 SENLIS Juliette 2003 1:11:86 1019 CLUB AQUATIQUE CHOLETAIS FRA
15 INGOGLIA Joanne 2002 1:12:15 1012 NANTES NATATION FRA
16 CELINI Lesy 1999 1:12:18 1011 ES MASSY NATATION FRA
17 GALLANT Félicie 2002 1:12:37 1006 LA ROCHE-SUR-YON NATATION FRA
18 MALLET Marine 2000 1:12:54 1001 LA ROCHE-SUR-YON NATATION FRA
19 LEPRON Agathe 2004 1:12:57 1001 CLUB AQUATIQUE CHOLETAIS FRA
20 MARTIN Manon 2002 1:12:85 993 LA ROCHE-SUR-YON NATATION FRA
21 BELBACHIR Aliya 2002 1:12:93 991 ES MASSY NATATION FRA
22 DUPAS Margot 2000 1:13:00 989 CN FLERS FRA
23 BOLUT Pauline 2001 1:13:87 966 LA ROCHE-SUR-YON NATATION FRA
24 CUGMAS Lilou 2003 1:14:05 962 NANTES NATATION FRA
25 FERGUENE Ines 2001 1:14:17 959 ES MASSY NATATION FRA
26 RAFOUGILET Doriane 2000 1:14:30 955 CLUB AQUATIQUE CHOLETAIS FRA
27 LEMONNIER-MURARI Emma 2001 1:14:74 944 OCTEVILLE NATATION FRA
28 DALLE Aliénor 2002 1:14:75 944 S.M MONTROUGE FRA
29 QUIGNON Carla 2003 1:15:35 928 ANGERS NATATION FRA
30 REMOND Eva 2003 1:15:48 925 NANTES NATATION FRA
31 GROSSET Helene 2000 1:15:66 920 CLUB DAUPHINS COGNAC FRA
32 ROUSSEAU Elsa 2003 1:16:18 907 ES MASSY NATATION FRA
33 GAZE Julie 2000 1:16:32 904 C VIKINGS DE ROUEN FRA
34 BEUVE Julie 2001 1:16:52 898 COTENTIN NATATION FRA
35 BOINIER Orane 2000 1:16:89 889 NANTES NATATION FRA
36 QUINT Ilona 2000 1:17:16 882 S.M MONTROUGE FRA
37 CARBONNELLE Victoire 2004 1:17:55 873 NANTES NATATION FRA
38 BLOSSEVILLE Violaine 2000 1:18:01 861 STADE ST-VALERY NATATION FRA
39 MOLINERO Jickie 2002 1:18:29 855 NANTES NATATION FRA
40 DURAND Marie 2001 1:18:52 849 LA ROCHE-SUR-YON NATATION FRA
41 DELALANDRE Julie 2001 1:18:62 846 STADE ST-VALERY NATATION FRA
42 LABRUGERE Camille 2003 1:18:71 844 ANGERS NATATION FRA
43 MONTARSOLO Louise 2004 1:18:73 844 CLUB DAUPHINS COGNAC FRA
44 ORANGE Vanina 2003 1:18:84 841 NANTES NATATION FRA
45 NAULIN Cédrine 2002 1:18:85 841 NANTES NATATION FRA
46 CELLE Pauline 2002 1:19:03 837 CN FLERS FRA
47 BRUN Tiphaine 2004 1:19:03 837 NANTES NATATION FRA
48 LIEGEOIS Marion 2001 1:19:54 824 VSF LA FERTÉ-BERNARD FRA
49 OROZCO Tiphaine 1979 1:19:55 824 CLUB AQUATIQUE CHOLETAIS FRA
50 DES COGNETS Juliette 2002 1:19:78 818 OCTEVILLE NATATION FRA
51 AUDEBAULT Noémie 2002 1:20:26 807 CN BRESSUIRE FRA
52 GUIHENEUF Coline 2004 1:20:61 799 NANTES NATATION FRA
53 FOURNIER Maelle 2003 1:20:91 792 AS CARQUEFOU FRA
54 VILLETTE Zoé 2002 1:21:24 784 OCTEVILLE NATATION FRA
55 RAYNAUD Manon 2001 1:21:28 783 CN BRESSUIRE FRA
56 VIGET Salina 2004 1:21:41 780 ANGERS NATATION FRA
57 FRANCOIS Clémence 2003 1:21:74 772 NANTES NATATION FRA
58 MICHAUD Briana 2003 1:21:87 769 CLUB DAUPHINS COGNAC FRA
59 GOHIER Lisa 2003 1:21:98 766 CN FLERS FRA
60 JACHNA Laura 2003 1:22:60 752 CLUB DAUPHINS COGNAC FRA
61 GIET Marine 2001 1:23:04 742 CN BEAUPREAU FRA
62 GODINEAU Jeanne 2004 1:23:69 727 CN BEAUPREAU FRA
63 GIRARD Kyra 2004 1:23:73 726 CLUB DAUPHINS COGNAC FRA
64 GARNIER Victoire 2004 1:24:27 714 AS CARQUEFOU FRA
65 LEMERCIER Lexanne 2004 1:24:31 713 CN BEAUPREAU FRA
66 AUPEE Anaïs 2002 1:24:39 712 CN FLERS FRA
67 NAUD Louane 2004 1:25:69 683 CLUB DAUPHINS COGNAC FRA
68 BESNARD Lucille 2002 1:25:82 680 CLUB AQUATIQUE CHOLETAIS FRA
69 ALAIN Agathe 2002 1:25:92 678 CN BRESSUIRE FRA
70 TOURON Axelle 2004 1:26:39 668 CN BEAUPREAU FRA
71 ALLIX Mathilde 2002 1:27:12 652 CN FLERS FRA
72 LE BOURHIS Maelia 2005 1:27:51 643 ST-SÉBASTIEN NATATION FRA
73 POUTEAU Estelle 2004 1:27:58 642 CLUB AQUATIQUE CHOLETAIS FRA
74 COIFFARD Angèle 2005 1:27:98 634 CN BEAUPREAU FRA
75 COFFIN Anaïs 2005 1:29:80 596 ST-SÉBASTIEN NATATION FRA
76 ARNAUD Eglantine 2006 1:31:17 568 CN BRESSUIRE FRA
77 GABORIT Loane 2006 1:31:19 568 ST-SÉBASTIEN NATATION FRA
78 FREULON Emma 2006 1:32:53 541 CN BRESSUIRE FRA
79 MOUILLÉ Elsa 2002 1:33:37 525 CN BEAUPREAU FRA
80 YORK Joss 2006 1:35:10 492 CN FLERS FRA
81 CHEVRIER Emma 2006 1:35:16 491 CLUB AQUATIQUE CHOLETAIS FRA
82 BRIN Jade 2007 1:37:29 452 CLUB AQUATIQUE CHOLETAIS FRA
83 PROUST Lilou 2005 1:37:62 446 CLUB AQUATIQUE CHOLETAIS FRA
84 GUILLEUX Perrine 2006 1:37:92 441 CLUB AQUATIQUE CHOLETAIS FRA
85 LAMBERT Naomie 2005 1:38:91 424 CLUB AQUATIQUE CHOLETAIS FRA
86 BARRÉ Maëlane 2005 1:43:76 344 CN BEAUPREAU FRA
SAUMUR NATATION